sensor_id;sensor_type;location;lat;lon;timestamp;P1;durP1;ratioP1;P2;durP2;ratioP2
363;SDS011;173;48.718;9.274;2022-07-17T00:00:57;4.00;;;3.70;;
363;SDS011;173;48.718;9.274;2022-07-17T00:03:29;9.40;;;3.90;;
363;SDS011;173;48.718;9.274;2022-07-17T00:06:02;4.00;;;3.70;;
363;SDS011;173;48.718;9.274;2022-07-17T00:08:36;5.50;;;3.70;;
363;SDS011;173;48.718;9.274;2022-07-17T00:11:08;3.30;;;3.00;;
363;SDS011;173;48.718;9.274;2022-07-17T00:13:42;3.65;;;3.35;;
363;SDS011;173;48.718;9.274;2022-07-17T00:16:13;6.40;;;4.50;;
363;SDS011;173;48.718;9.274;2022-07-17T00:21:22;3.90;;;3.60;;
363;SDS011;173;48.718;9.274;2022-07-17T00:23:56;3.90;;;3.40;;
363;SDS011;173;48.718;9.274;2022-07-17T00:26:28;5.05;;;3.90;;
363;SDS011;173;48.718;9.274;2022-07-17T00:29:02;6.00;;;4.30;;
363;SDS011;173;48.718;9.274;2022-07-17T00:31:34;4.75;;;4.35;;
363;SDS011;173;48.718;9.274;2022-07-17T00:34:08;5.20;;;4.70;;
363;SDS011;173;48.718;9.274;2022-07-17T00:36:43;4.50;;;4.10;;
363;SDS011;173;48.718;9.274;2022-07-17T00:39:17;4.85;;;4.35;;
363;SDS011;173;48.718;9.274;2022-07-17T00:41:49;4.95;;;4.50;;
363;SDS011;173;48.718;9.274;2022-07-17T00:44:21;3.90;;;3.60;;
363;SDS011;173;48.718;9.274;2022-07-17T00:46:58;4.40;;;4.00;;
363;SDS011;173;48.718;9.274;2022-07-17T00:49:32;4.95;;;4.50;;
363;SDS011;173;48.718;9.274;2022-07-17T00:52:05;4.75;;;4.25;;
363;SDS011;173;48.718;9.274;2022-07-17T00:54:43;5.00;;;4.60;;
363;SDS011;173;48.718;9.274;2022-07-17T00:57:10;6.00;;;4.70;;
363;SDS011;173;48.718;9.274;2022-07-17T00:59:44;7.10;;;4.35;;
363;SDS011;173;48.718;9.274;2022-07-17T01:02:18;7.65;;;4.55;;
363;SDS011;173;48.718;9.274;2022-07-17T01:04:50;4.50;;;4.00;;
363;SDS011;173;48.718;9.274;2022-07-17T01:07:22;5.70;;;5.10;;
363;SDS011;173;48.718;9.274;2022-07-17T01:09:56;5.90;;;4.70;;
363;SDS011;173;48.718;9.274;2022-07-17T01:12:28;6.25;;;4.85;;
363;SDS011;173;48.718;9.274;2022-07-17T01:15:03;4.70;;;4.20;;
363;SDS011;173;48.718;9.274;2022-07-17T01:17:36;4.00;;;3.70;;
363;SDS011;173;48.718;9.274;2022-07-17T01:20:10;4.30;;;3.90;;
363;SDS011;173;48.718;9.274;2022-07-17T01:22:45;4.95;;;4.55;;
363;SDS011;173;48.718;9.274;2022-07-17T01:25:21;4.30;;;3.80;;
363;SDS011;173;48.718;9.274;2022-07-17T01:27:56;3.80;;;3.50;;
363;SDS011;173;48.718;9.274;2022-07-17T01:30:31;4.13;;;3.77;;
363;SDS011;173;48.718;9.274;2022-07-17T01:33:05;6.40;;;3.60;;
363;SDS011;173;48.718;9.274;2022-07-17T01:35:39;4.45;;;4.05;;
363;SDS011;173;48.718;9.274;2022-07-17T01:38:14;5.70;;;4.30;;
363;SDS011;173;48.718;9.274;2022-07-17T01:40:48;3.80;;;3.50;;
363;SDS011;173;48.718;9.274;2022-07-17T01:43:22;5.35;;;4.05;;
363;SDS011;173;48.718;9.274;2022-07-17T01:45:56;3.65;;;3.20;;
363;SDS011;173;48.718;9.274;2022-07-17T01:48:30;3.60;;;3.30;;
363;SDS011;173;48.718;9.274;2022-07-17T01:51:04;4.20;;;3.80;;
363;SDS011;173;48.718;9.274;2022-07-17T01:53:38;5.20;;;3.90;;
363;SDS011;173;48.718;9.274;2022-07-17T01:56:12;4.30;;;3.90;;
363;SDS011;173;48.718;9.274;2022-07-17T01:58:47;3.55;;;3.20;;
363;SDS011;173;48.718;9.274;2022-07-17T02:01:21;3.35;;;3.05;;
363;SDS011;173;48.718;9.274;2022-07-17T02:03:55;4.95;;;4.55;;
363;SDS011;173;48.718;9.274;2022-07-17T02:08:59;5.00;;;4.30;;
363;SDS011;173;48.718;9.274;2022-07-17T02:11:32;8.60;;;4.50;;
363;SDS011;173;48.718;9.274;2022-07-17T02:14:06;4.30;;;4.00;;
363;SDS011;173;48.718;9.274;2022-07-17T02:16:43;6.35;;;5.15;;
363;SDS011;173;48.718;9.274;2022-07-17T02:19:17;5.10;;;4.60;;
363;SDS011;173;48.718;9.274;2022-07-17T02:21:51;5.20;;;4.70;;
363;SDS011;173;48.718;9.274;2022-07-17T02:24:25;5.70;;;5.10;;
363;SDS011;173;48.718;9.274;2022-07-17T02:26:59;6.40;;;5.15;;
363;SDS011;173;48.718;9.274;2022-07-17T02:29:33;5.60;;;5.10;;
363;SDS011;173;48.718;9.274;2022-07-17T02:32:07;5.60;;;4.65;;
363;SDS011;173;48.718;9.274;2022-07-17T02:34:41;6.30;;;4.60;;
363;SDS011;173;48.718;9.274;2022-07-17T02:37:15;4.85;;;4.45;;
363;SDS011;173;48.718;9.274;2022-07-17T02:39:50;5.00;;;4.55;;
363;SDS011;173;48.718;9.274;2022-07-17T02:44:57;4.50;;;4.10;;
363;SDS011;173;48.718;9.274;2022-07-17T02:47:32;5.67;;;5.17;;
363;SDS011;173;48.718;9.274;2022-07-17T02:50:08;5.90;;;5.30;;
363;SDS011;173;48.718;9.274;2022-07-17T02:52:43;5.80;;;5.20;;
363;SDS011;173;48.718;9.274;2022-07-17T02:55:17;5.15;;;4.50;;
363;SDS011;173;48.718;9.274;2022-07-17T02:57:51;5.20;;;4.80;;
363;SDS011;173;48.718;9.274;2022-07-17T03:00:25;7.90;;;5.00;;
363;SDS011;173;48.718;9.274;2022-07-17T03:03:00;6.40;;;5.30;;
363;SDS011;173;48.718;9.274;2022-07-17T03:05:30;6.30;;;5.70;;
363;SDS011;173;48.718;9.274;2022-07-17T03:08:04;6.05;;;5.45;;
363;SDS011;173;48.718;9.274;2022-07-17T03:10:39;5.00;;;4.60;;
363;SDS011;173;48.718;9.274;2022-07-17T03:13:10;6.05;;;5.45;;
363;SDS011;173;48.718;9.274;2022-07-17T03:15:41;5.70;;;5.15;;
363;SDS011;173;48.718;9.274;2022-07-17T03:18:12;5.45;;;4.95;;
363;SDS011;173;48.718;9.274;2022-07-17T03:20:42;6.60;;;5.70;;
363;SDS011;173;48.718;9.274;2022-07-17T03:25:45;6.60;;;5.40;;
363;SDS011;173;48.718;9.274;2022-07-17T03:28:19;5.00;;;4.50;;
363;SDS011;173;48.718;9.274;2022-07-17T03:30:53;5.20;;;4.70;;
363;SDS011;173;48.718;9.274;2022-07-17T03:33:25;4.95;;;4.45;;
363;SDS011;173;48.718;9.274;2022-07-17T03:35:57;6.60;;;5.90;;
363;SDS011;173;48.718;9.274;2022-07-17T03:38:30;8.15;;;5.20;;
363;SDS011;173;48.718;9.274;2022-07-17T03:41:03;4.60;;;4.20;;
363;SDS011;173;48.718;9.274;2022-07-17T03:43:37;6.90;;;5.10;;
363;SDS011;173;48.718;9.274;2022-07-17T03:46:09;5.23;;;4.83;;
363;SDS011;173;48.718;9.274;2022-07-17T03:48:41;5.60;;;5.00;;
363;SDS011;173;48.718;9.274;2022-07-17T03:51:15;5.20;;;4.70;;
363;SDS011;173;48.718;9.274;2022-07-17T03:53:47;5.10;;;4.60;;
363;SDS011;173;48.718;9.274;2022-07-17T03:56:19;5.70;;;5.20;;
363;SDS011;173;48.718;9.274;2022-07-17T03:58:54;6.30;;;5.60;;
363;SDS011;173;48.718;9.274;2022-07-17T04:01:27;5.00;;;4.60;;
363;SDS011;173;48.718;9.274;2022-07-17T04:03:59;5.20;;;4.70;;
363;SDS011;173;48.718;9.274;2022-07-17T04:06:33;5.70;;;4.90;;
363;SDS011;173;48.718;9.274;2022-07-17T04:09:05;5.30;;;4.90;;
363;SDS011;173;48.718;9.274;2022-07-17T04:11:37;5.40;;;4.80;;
363;SDS011;173;48.718;9.274;2022-07-17T04:14:08;4.85;;;4.45;;
363;SDS011;173;48.718;9.274;2022-07-17T04:16:40;5.25;;;4.75;;
363;SDS011;173;48.718;9.274;2022-07-17T04:19:12;5.60;;;5.10;;
363;SDS011;173;48.718;9.274;2022-07-17T04:21:46;6.65;;;4.90;;
363;SDS011;173;48.718;9.274;2022-07-17T04:24:18;5.70;;;5.00;;
363;SDS011;173;48.718;9.274;2022-07-17T04:26:52;5.10;;;4.60;;
363;SDS011;173;48.718;9.274;2022-07-17T04:29:27;5.35;;;4.80;;
363;SDS011;173;48.718;9.274;2022-07-17T04:32:01;5.80;;;5.40;;
363;SDS011;173;48.718;9.274;2022-07-17T04:34:33;4.80;;;4.40;;
363;SDS011;173;48.718;9.274;2022-07-17T04:37:07;9.30;;;4.95;;
363;SDS011;173;48.718;9.274;2022-07-17T04:39:40;5.50;;;5.00;;
363;SDS011;173;48.718;9.274;2022-07-17T04:42:14;5.40;;;4.85;;
363;SDS011;173;48.718;9.274;2022-07-17T04:44:48;5.60;;;5.10;;
363;SDS011;173;48.718;9.274;2022-07-17T04:47:21;9.00;;;5.10;;
363;SDS011;173;48.718;9.274;2022-07-17T04:49:51;6.20;;;5.65;;
363;SDS011;173;48.718;9.274;2022-07-17T04:52:23;6.60;;;5.40;;
363;SDS011;173;48.718;9.274;2022-07-17T04:54:57;8.10;;;5.60;;
363;SDS011;173;48.718;9.274;2022-07-17T04:57:31;5.30;;;4.90;;
363;SDS011;173;48.718;9.274;2022-07-17T05:00:06;5.35;;;4.85;;
363;SDS011;173;48.718;9.274;2022-07-17T05:02:42;4.80;;;4.40;;
363;SDS011;173;48.718;9.274;2022-07-17T05:05:14;5.60;;;5.00;;
363;SDS011;173;48.718;9.274;2022-07-17T05:07:48;5.75;;;4.60;;
363;SDS011;173;48.718;9.274;2022-07-17T05:10:20;4.75;;;4.35;;
363;SDS011;173;48.718;9.274;2022-07-17T05:12:52;5.50;;;5.10;;
363;SDS011;173;48.718;9.274;2022-07-17T05:15:26;5.55;;;5.15;;
363;SDS011;173;48.718;9.274;2022-07-17T05:18:01;5.40;;;4.90;;
363;SDS011;173;48.718;9.274;2022-07-17T05:20:33;6.10;;;5.60;;
363;SDS011;173;48.718;9.274;2022-07-17T05:23:07;5.80;;;5.30;;
363;SDS011;173;48.718;9.274;2022-07-17T05:25:39;6.35;;;5.75;;
363;SDS011;173;48.718;9.274;2022-07-17T05:28:12;6.80;;;6.20;;
363;SDS011;173;48.718;9.274;2022-07-17T05:30:42;6.30;;;5.65;;
363;SDS011;173;48.718;9.274;2022-07-17T05:33:15;6.95;;;6.35;;
363;SDS011;173;48.718;9.274;2022-07-17T05:35:45;5.55;;;5.15;;
363;SDS011;173;48.718;9.274;2022-07-17T05:38:15;5.95;;;5.45;;
363;SDS011;173;48.718;9.274;2022-07-17T05:40:50;6.50;;;5.60;;
363;SDS011;173;48.718;9.274;2022-07-17T05:43:22;6.20;;;5.60;;
363;SDS011;173;48.718;9.274;2022-07-17T05:45:56;5.70;;;4.90;;
363;SDS011;173;48.718;9.274;2022-07-17T05:48:31;5.20;;;4.70;;
363;SDS011;173;48.718;9.274;2022-07-17T05:51:03;4.80;;;4.40;;
363;SDS011;173;48.718;9.274;2022-07-17T05:53:35;4.55;;;4.15;;
363;SDS011;173;48.718;9.274;2022-07-17T05:56:07;6.05;;;5.45;;
363;SDS011;173;48.718;9.274;2022-07-17T05:58:39;4.30;;;4.00;;
363;SDS011;173;48.718;9.274;2022-07-17T06:03:43;6.00;;;5.50;;
363;SDS011;173;48.718;9.274;2022-07-17T06:06:17;7.20;;;6.50;;
363;SDS011;173;48.718;9.274;2022-07-17T06:08:52;6.30;;;5.70;;
363;SDS011;173;48.718;9.274;2022-07-17T06:11:26;6.00;;;5.50;;
363;SDS011;173;48.718;9.274;2022-07-17T06:13:57;5.40;;;5.00;;
363;SDS011;173;48.718;9.274;2022-07-17T06:16:28;5.80;;;5.00;;
363;SDS011;173;48.718;9.274;2022-07-17T06:19:01;5.30;;;4.80;;
363;SDS011;173;48.718;9.274;2022-07-17T06:21:33;11.30;;;4.70;;
363;SDS011;173;48.718;9.274;2022-07-17T06:24:05;6.90;;;5.70;;
363;SDS011;173;48.718;9.274;2022-07-17T06:26:39;6.10;;;4.75;;
363;SDS011;173;48.718;9.274;2022-07-17T06:29:11;6.10;;;4.10;;
363;SDS011;173;48.718;9.274;2022-07-17T06:31:45;5.45;;;4.60;;
363;SDS011;173;48.718;9.274;2022-07-17T06:34:19;6.20;;;4.35;;
363;SDS011;173;48.718;9.274;2022-07-17T06:36:52;3.60;;;3.30;;
363;SDS011;173;48.718;9.274;2022-07-17T06:39:22;3.90;;;3.60;;
363;SDS011;173;48.718;9.274;2022-07-17T06:41:54;3.80;;;3.50;;
363;SDS011;173;48.718;9.274;2022-07-17T06:44:26;3.95;;;3.65;;
363;SDS011;173;48.718;9.274;2022-07-17T06:47:01;3.95;;;3.65;;
363;SDS011;173;48.718;9.274;2022-07-17T06:49:33;4.10;;;3.70;;
363;SDS011;173;48.718;9.274;2022-07-17T06:52:07;4.45;;;3.95;;
363;SDS011;173;48.718;9.274;2022-07-17T06:54:41;4.40;;;4.10;;
363;SDS011;173;48.718;9.274;2022-07-17T06:57:13;3.80;;;3.50;;
363;SDS011;173;48.718;9.274;2022-07-17T06:59:48;3.60;;;3.30;;
363;SDS011;173;48.718;9.274;2022-07-17T07:02:19;3.85;;;2.65;;
363;SDS011;173;48.718;9.274;2022-07-17T07:04:49;4.20;;;3.80;;
363;SDS011;173;48.718;9.274;2022-07-17T07:07:21;3.75;;;3.40;;
363;SDS011;173;48.718;9.274;2022-07-17T07:09:55;3.80;;;3.50;;
363;SDS011;173;48.718;9.274;2022-07-17T07:12:28;4.00;;;3.70;;
363;SDS011;173;48.718;9.274;2022-07-17T07:15:00;3.90;;;3.10;;
363;SDS011;173;48.718;9.274;2022-07-17T07:17:35;3.70;;;3.40;;
363;SDS011;173;48.718;9.274;2022-07-17T07:20:10;3.20;;;3.00;;
363;SDS011;173;48.718;9.274;2022-07-17T07:22:42;3.87;;;3.57;;
363;SDS011;173;48.718;9.274;2022-07-17T07:25:16;3.87;;;3.57;;
363;SDS011;173;48.718;9.274;2022-07-17T07:27:48;3.63;;;3.33;;
363;SDS011;173;48.718;9.274;2022-07-17T07:32:51;3.70;;;3.40;;
363;SDS011;173;48.718;9.274;2022-07-17T07:35:23;5.10;;;3.20;;
363;SDS011;173;48.718;9.274;2022-07-17T07:37:57;3.10;;;2.90;;
363;SDS011;173;48.718;9.274;2022-07-17T07:40:30;3.10;;;2.90;;
363;SDS011;173;48.718;9.274;2022-07-17T07:43:02;3.40;;;3.10;;
363;SDS011;173;48.718;9.274;2022-07-17T07:46:15;3.53;;;3.00;;
363;SDS011;173;48.718;9.274;2022-07-17T07:48:47;3.10;;;2.90;;
363;SDS011;173;48.718;9.274;2022-07-17T07:51:19;3.60;;;3.30;;
363;SDS011;173;48.718;9.274;2022-07-17T07:53:51;4.15;;;3.70;;
363;SDS011;173;48.718;9.274;2022-07-17T07:56:23;3.60;;;3.05;;
363;SDS011;173;48.718;9.274;2022-07-17T07:58:58;4.30;;;4.00;;
363;SDS011;173;48.718;9.274;2022-07-17T08:01:36;3.30;;;3.00;;
363;SDS011;173;48.718;9.274;2022-07-17T08:04:08;3.55;;;3.25;;
363;SDS011;173;48.718;9.274;2022-07-17T08:06:41;4.90;;;3.75;;
363;SDS011;173;48.718;9.274;2022-07-17T08:09:13;3.60;;;3.40;;
363;SDS011;173;48.718;9.274;2022-07-17T08:11:45;3.10;;;2.90;;
363;SDS011;173;48.718;9.274;2022-07-17T08:14:17;4.20;;;3.65;;
363;SDS011;173;48.718;9.274;2022-07-17T08:16:49;3.10;;;2.90;;
363;SDS011;173;48.718;9.274;2022-07-17T08:19:21;4.30;;;3.40;;
363;SDS011;173;48.718;9.274;2022-07-17T08:21:53;3.60;;;3.30;;
363;SDS011;173;48.718;9.274;2022-07-17T08:24:26;3.10;;;2.90;;
363;SDS011;173;48.718;9.274;2022-07-17T08:26:57;3.70;;;3.40;;
363;SDS011;173;48.718;9.274;2022-07-17T08:31:57;3.60;;;3.30;;
363;SDS011;173;48.718;9.274;2022-07-17T08:34:29;3.00;;;2.80;;
363;SDS011;173;48.718;9.274;2022-07-17T08:37:01;2.80;;;2.50;;
363;SDS011;173;48.718;9.274;2022-07-17T08:39:34;4.00;;;3.10;;
363;SDS011;173;48.718;9.274;2022-07-17T08:42:05;3.15;;;2.95;;
363;SDS011;173;48.718;9.274;2022-07-17T08:44:35;3.60;;;3.40;;
363;SDS011;173;48.718;9.274;2022-07-17T08:47:08;3.20;;;3.00;;
363;SDS011;173;48.718;9.274;2022-07-17T08:49:46;3.25;;;3.00;;
363;SDS011;173;48.718;9.274;2022-07-17T08:52:19;4.35;;;3.45;;
363;SDS011;173;48.718;9.274;2022-07-17T08:57:21;2.90;;;2.70;;
363;SDS011;173;48.718;9.274;2022-07-17T08:59:53;3.85;;;2.55;;
363;SDS011;173;48.718;9.274;2022-07-17T09:02:25;3.00;;;2.60;;
363;SDS011;173;48.718;9.274;2022-07-17T09:04:57;3.20;;;2.50;;
363;SDS011;173;48.718;9.274;2022-07-17T09:07:30;2.70;;;2.50;;
363;SDS011;173;48.718;9.274;2022-07-17T09:10:03;2.50;;;2.40;;
363;SDS011;173;48.718;9.274;2022-07-17T09:12:36;2.80;;;2.60;;
363;SDS011;173;48.718;9.274;2022-07-17T09:15:19;2.65;;;2.45;;
363;SDS011;173;48.718;9.274;2022-07-17T09:17:51;4.40;;;3.00;;
363;SDS011;173;48.718;9.274;2022-07-17T09:20:25;3.00;;;2.80;;
363;SDS011;173;48.718;9.274;2022-07-17T09:23:02;2.60;;;2.40;;
363;SDS011;173;48.718;9.274;2022-07-17T09:25:39;2.30;;;2.15;;
363;SDS011;173;48.718;9.274;2022-07-17T09:28:17;2.70;;;2.50;;
363;SDS011;173;48.718;9.274;2022-07-17T09:30:51;2.70;;;2.50;;
363;SDS011;173;48.718;9.274;2022-07-17T09:33:26;2.60;;;2.40;;
363;SDS011;173;48.718;9.274;2022-07-17T09:36:10;2.55;;;2.35;;
363;SDS011;173;48.718;9.274;2022-07-17T09:38:42;2.40;;;2.20;;
363;SDS011;173;48.718;9.274;2022-07-17T09:41:16;4.10;;;3.75;;
363;SDS011;173;48.718;9.274;2022-07-17T09:43:54;2.40;;;2.20;;
363;SDS011;173;48.718;9.274;2022-07-17T09:46:30;2.40;;;2.20;;
363;SDS011;173;48.718;9.274;2022-07-17T09:49:06;2.25;;;2.05;;
363;SDS011;173;48.718;9.274;2022-07-17T09:51:40;2.40;;;2.20;;
363;SDS011;173;48.718;9.274;2022-07-17T09:54:13;2.60;;;2.40;;
363;SDS011;173;48.718;9.274;2022-07-17T09:56:54;2.20;;;2.05;;
363;SDS011;173;48.718;9.274;2022-07-17T09:59:26;2.00;;;1.90;;
363;SDS011;173;48.718;9.274;2022-07-17T10:02:02;2.20;;;2.10;;
363;SDS011;173;48.718;9.274;2022-07-17T10:04:35;2.20;;;2.00;;
363;SDS011;173;48.718;9.274;2022-07-17T10:07:08;2.10;;;1.90;;
363;SDS011;173;48.718;9.274;2022-07-17T10:09:41;2.60;;;2.40;;
363;SDS011;173;48.718;9.274;2022-07-17T10:12:13;2.10;;;1.90;;
363;SDS011;173;48.718;9.274;2022-07-17T10:14:47;2.30;;;2.10;;
363;SDS011;173;48.718;9.274;2022-07-17T10:17:21;2.20;;;2.05;;
363;SDS011;173;48.718;9.274;2022-07-17T10:19:54;2.10;;;2.00;;
363;SDS011;173;48.718;9.274;2022-07-17T10:22:28;2.00;;;1.80;;
363;SDS011;173;48.718;9.274;2022-07-17T10:25:14;2.20;;;2.00;;
363;SDS011;173;48.718;9.274;2022-07-17T10:27:48;2.40;;;2.20;;
363;SDS011;173;48.718;9.274;2022-07-17T10:30:23;1.90;;;1.80;;
363;SDS011;173;48.718;9.274;2022-07-17T10:33:04;2.20;;;1.65;;
363;SDS011;173;48.718;9.274;2022-07-17T10:35:42;2.10;;;1.90;;
363;SDS011;173;48.718;9.274;2022-07-17T10:38:17;2.10;;;1.80;;
363;SDS011;173;48.718;9.274;2022-07-17T10:40:58;2.20;;;2.00;;
363;SDS011;173;48.718;9.274;2022-07-17T10:43:47;2.00;;;1.80;;
363;SDS011;173;48.718;9.274;2022-07-17T10:46:13;3.95;;;2.00;;
363;SDS011;173;48.718;9.274;2022-07-17T10:48:48;2.50;;;2.10;;
363;SDS011;173;48.718;9.274;2022-07-17T10:51:25;1.80;;;1.70;;
363;SDS011;173;48.718;9.274;2022-07-17T10:53:59;2.00;;;1.90;;
363;SDS011;173;48.718;9.274;2022-07-17T10:56:32;2.10;;;1.80;;
363;SDS011;173;48.718;9.274;2022-07-17T10:59:12;2.10;;;1.90;;
363;SDS011;173;48.718;9.274;2022-07-17T11:01:44;2.45;;;2.25;;
363;SDS011;173;48.718;9.274;2022-07-17T11:04:19;1.80;;;1.70;;
363;SDS011;173;48.718;9.274;2022-07-17T11:06:52;1.90;;;1.80;;
363;SDS011;173;48.718;9.274;2022-07-17T11:09:24;1.90;;;1.80;;
363;SDS011;173;48.718;9.274;2022-07-17T11:11:57;1.80;;;1.70;;
363;SDS011;173;48.718;9.274;2022-07-17T11:14:29;1.80;;;1.70;;
363;SDS011;173;48.718;9.274;2022-07-17T11:17:02;1.75;;;1.65;;
363;SDS011;173;48.718;9.274;2022-07-17T11:19:35;1.70;;;1.60;;
363;SDS011;173;48.718;9.274;2022-07-17T11:22:10;2.50;;;2.30;;
363;SDS011;173;48.718;9.274;2022-07-17T11:24:44;2.40;;;2.10;;
363;SDS011;173;48.718;9.274;2022-07-17T11:27:19;2.50;;;2.10;;
363;SDS011;173;48.718;9.274;2022-07-17T11:29:53;1.80;;;1.70;;
363;SDS011;173;48.718;9.274;2022-07-17T11:32:35;1.90;;;1.80;;
363;SDS011;173;48.718;9.274;2022-07-17T11:35:19;1.80;;;1.70;;
363;SDS011;173;48.718;9.274;2022-07-17T11:37:50;2.00;;;1.90;;
363;SDS011;173;48.718;9.274;2022-07-17T11:40:20;1.90;;;1.80;;
363;SDS011;173;48.718;9.274;2022-07-17T11:42:59;2.30;;;1.70;;
363;SDS011;173;48.718;9.274;2022-07-17T11:48:14;2.20;;;2.00;;
363;SDS011;173;48.718;9.274;2022-07-17T11:50:53;1.70;;;1.60;;
363;SDS011;173;48.718;9.274;2022-07-17T11:53:33;1.70;;;1.60;;
363;SDS011;173;48.718;9.274;2022-07-17T11:56:07;1.60;;;1.50;;
363;SDS011;173;48.718;9.274;2022-07-17T11:58:44;1.70;;;1.60;;
363;SDS011;173;48.718;9.274;2022-07-17T12:01:17;2.10;;;2.00;;
363;SDS011;173;48.718;9.274;2022-07-17T12:03:59;1.50;;;1.40;;
363;SDS011;173;48.718;9.274;2022-07-17T12:06:32;2.00;;;1.90;;
363;SDS011;173;48.718;9.274;2022-07-17T12:09:04;1.70;;;1.60;;
363;SDS011;173;48.718;9.274;2022-07-17T12:11:53;1.90;;;1.80;;
363;SDS011;173;48.718;9.274;2022-07-17T12:14:20;2.00;;;1.90;;
363;SDS011;173;48.718;9.274;2022-07-17T12:16:55;2.05;;;1.90;;
363;SDS011;173;48.718;9.274;2022-07-17T12:19:28;1.60;;;1.50;;
363;SDS011;173;48.718;9.274;2022-07-17T12:22:01;2.30;;;2.20;;
363;SDS011;173;48.718;9.274;2022-07-17T12:24:39;2.20;;;2.10;;
363;SDS011;173;48.718;9.274;2022-07-17T12:27:15;2.90;;;1.95;;
363;SDS011;173;48.718;9.274;2022-07-17T12:29:48;2.20;;;2.10;;
363;SDS011;173;48.718;9.274;2022-07-17T12:32:20;2.20;;;2.10;;
363;SDS011;173;48.718;9.274;2022-07-17T12:34:52;1.70;;;1.60;;
363;SDS011;173;48.718;9.274;2022-07-17T12:37:24;2.60;;;2.40;;
363;SDS011;173;48.718;9.274;2022-07-17T12:39:56;2.20;;;2.00;;
363;SDS011;173;48.718;9.274;2022-07-17T12:42:28;2.03;;;1.93;;
363;SDS011;173;48.718;9.274;2022-07-17T12:45:00;2.30;;;2.10;;
363;SDS011;173;48.718;9.274;2022-07-17T12:47:33;2.20;;;2.00;;
363;SDS011;173;48.718;9.274;2022-07-17T12:50:06;1.70;;;1.60;;
363;SDS011;173;48.718;9.274;2022-07-17T12:52:38;2.30;;;2.20;;
363;SDS011;173;48.718;9.274;2022-07-17T12:55:10;2.20;;;2.00;;
363;SDS011;173;48.718;9.274;2022-07-17T12:57:43;2.10;;;2.00;;
363;SDS011;173;48.718;9.274;2022-07-17T13:00:15;1.70;;;1.60;;
363;SDS011;173;48.718;9.274;2022-07-17T13:02:47;2.10;;;2.00;;
363;SDS011;173;48.718;9.274;2022-07-17T13:05:19;2.50;;;2.30;;
363;SDS011;173;48.718;9.274;2022-07-17T13:07:51;2.10;;;2.00;;
363;SDS011;173;48.718;9.274;2022-07-17T13:10:23;1.70;;;1.60;;
363;SDS011;173;48.718;9.274;2022-07-17T13:12:55;2.10;;;1.80;;
363;SDS011;173;48.718;9.274;2022-07-17T13:15:27;2.10;;;1.95;;
363;SDS011;173;48.718;9.274;2022-07-17T13:18:00;2.05;;;1.90;;
363;SDS011;173;48.718;9.274;2022-07-17T13:20:32;2.05;;;1.95;;
363;SDS011;173;48.718;9.274;2022-07-17T13:23:04;2.35;;;2.25;;
363;SDS011;173;48.718;9.274;2022-07-17T13:25:37;2.00;;;1.90;;
363;SDS011;173;48.718;9.274;2022-07-17T13:28:10;2.00;;;1.90;;
363;SDS011;173;48.718;9.274;2022-07-17T13:30:43;4.30;;;1.80;;
363;SDS011;173;48.718;9.274;2022-07-17T13:33:16;1.70;;;1.60;;
363;SDS011;173;48.718;9.274;2022-07-17T13:35:48;1.90;;;1.80;;
363;SDS011;173;48.718;9.274;2022-07-17T13:38:21;3.60;;;2.00;;
363;SDS011;173;48.718;9.274;2022-07-17T13:40:53;2.00;;;1.90;;
363;SDS011;173;48.718;9.274;2022-07-17T13:43:25;2.10;;;1.90;;
363;SDS011;173;48.718;9.274;2022-07-17T13:45:57;2.15;;;2.05;;
363;SDS011;173;48.718;9.274;2022-07-17T13:48:29;2.00;;;1.90;;
363;SDS011;173;48.718;9.274;2022-07-17T13:51:01;1.70;;;1.60;;
363;SDS011;173;48.718;9.274;2022-07-17T13:53:34;1.80;;;1.70;;
363;SDS011;173;48.718;9.274;2022-07-17T13:56:06;1.90;;;1.80;;
363;SDS011;173;48.718;9.274;2022-07-17T13:58:38;2.30;;;2.15;;
363;SDS011;173;48.718;9.274;2022-07-17T14:01:11;2.90;;;2.10;;
363;SDS011;173;48.718;9.274;2022-07-17T14:03:43;2.00;;;1.90;;
363;SDS011;173;48.718;9.274;2022-07-17T14:06:16;1.90;;;1.80;;
363;SDS011;173;48.718;9.274;2022-07-17T14:08:48;2.00;;;1.80;;
363;SDS011;173;48.718;9.274;2022-07-17T14:11:20;2.30;;;1.70;;
363;SDS011;173;48.718;9.274;2022-07-17T14:13:52;2.00;;;1.80;;
363;SDS011;173;48.718;9.274;2022-07-17T14:16:24;2.10;;;2.00;;
363;SDS011;173;48.718;9.274;2022-07-17T14:18:56;2.70;;;2.50;;
363;SDS011;173;48.718;9.274;2022-07-17T14:21:29;2.10;;;1.90;;
363;SDS011;173;48.718;9.274;2022-07-17T14:24:04;1.95;;;1.85;;
363;SDS011;173;48.718;9.274;2022-07-17T14:26:36;2.20;;;2.00;;
363;SDS011;173;48.718;9.274;2022-07-17T14:29:10;1.80;;;1.70;;
363;SDS011;173;48.718;9.274;2022-07-17T14:33:46;1.95;;;1.85;;
363;SDS011;173;48.718;9.274;2022-07-17T14:36:18;2.60;;;2.40;;
363;SDS011;173;48.718;9.274;2022-07-17T14:38:50;1.80;;;1.70;;
363;SDS011;173;48.718;9.274;2022-07-17T14:41:22;2.00;;;1.90;;
363;SDS011;173;48.718;9.274;2022-07-17T14:43:54;2.00;;;1.90;;
363;SDS011;173;48.718;9.274;2022-07-17T14:46:26;2.00;;;1.80;;
363;SDS011;173;48.718;9.274;2022-07-17T14:48:58;1.75;;;1.65;;
363;SDS011;173;48.718;9.274;2022-07-17T14:51:30;1.70;;;1.60;;
363;SDS011;173;48.718;9.274;2022-07-17T14:54:02;2.50;;;1.80;;
363;SDS011;173;48.718;9.274;2022-07-17T14:56:34;1.70;;;1.60;;
363;SDS011;173;48.718;9.274;2022-07-17T14:59:07;1.90;;;1.80;;
363;SDS011;173;48.718;9.274;2022-07-17T15:01:39;1.70;;;1.50;;
363;SDS011;173;48.718;9.274;2022-07-17T15:04:11;2.20;;;2.10;;
363;SDS011;173;48.718;9.274;2022-07-17T15:06:43;1.90;;;1.80;;
363;SDS011;173;48.718;9.274;2022-07-17T15:09:15;2.20;;;2.00;;
363;SDS011;173;48.718;9.274;2022-07-17T15:11:47;1.60;;;1.50;;
363;SDS011;173;48.718;9.274;2022-07-17T15:14:19;1.60;;;1.50;;
363;SDS011;173;48.718;9.274;2022-07-17T15:16:51;1.80;;;1.70;;
363;SDS011;173;48.718;9.274;2022-07-17T15:19:23;1.80;;;1.70;;
363;SDS011;173;48.718;9.274;2022-07-17T15:21:55;1.90;;;1.80;;
363;SDS011;173;48.718;9.274;2022-07-17T15:24:27;1.50;;;1.40;;
363;SDS011;173;48.718;9.274;2022-07-17T15:26:59;1.90;;;1.80;;
363;SDS011;173;48.718;9.274;2022-07-17T15:29:31;2.00;;;1.75;;
363;SDS011;173;48.718;9.274;2022-07-17T15:32:03;2.20;;;2.00;;
363;SDS011;173;48.718;9.274;2022-07-17T15:34:36;2.10;;;2.00;;
363;SDS011;173;48.718;9.274;2022-07-17T15:37:08;2.10;;;1.90;;
363;SDS011;173;48.718;9.274;2022-07-17T15:39:40;1.70;;;1.60;;
363;SDS011;173;48.718;9.274;2022-07-17T15:42:12;1.80;;;1.70;;
363;SDS011;173;48.718;9.274;2022-07-17T15:44:44;3.80;;;2.40;;
363;SDS011;173;48.718;9.274;2022-07-17T15:47:16;1.90;;;1.80;;
363;SDS011;173;48.718;9.274;2022-07-17T15:50:50;1.70;;;1.60;;
363;SDS011;173;48.718;9.274;2022-07-17T15:53:22;1.90;;;1.80;;
363;SDS011;173;48.718;9.274;2022-07-17T15:55:54;1.80;;;1.70;;
363;SDS011;173;48.718;9.274;2022-07-17T15:58:27;2.30;;;2.00;;
363;SDS011;173;48.718;9.274;2022-07-17T16:00:59;2.10;;;2.00;;
363;SDS011;173;48.718;9.274;2022-07-17T16:03:31;2.10;;;2.00;;
363;SDS011;173;48.718;9.274;2022-07-17T16:06:03;2.00;;;1.90;;
363;SDS011;173;48.718;9.274;2022-07-17T16:08:35;1.70;;;1.60;;
363;SDS011;173;48.718;9.274;2022-07-17T16:11:07;2.00;;;1.90;;
363;SDS011;173;48.718;9.274;2022-07-17T16:13:39;1.70;;;1.60;;
363;SDS011;173;48.718;9.274;2022-07-17T16:16:11;2.10;;;1.90;;
363;SDS011;173;48.718;9.274;2022-07-17T16:18:44;1.40;;;1.30;;
363;SDS011;173;48.718;9.274;2022-07-17T16:21:18;2.10;;;1.50;;
363;SDS011;173;48.718;9.274;2022-07-17T16:23:51;1.75;;;1.65;;
363;SDS011;173;48.718;9.274;2022-07-17T16:33:21;1.90;;;1.75;;
363;SDS011;173;48.718;9.274;2022-07-17T16:35:53;2.10;;;1.90;;
363;SDS011;173;48.718;9.274;2022-07-17T16:38:25;1.80;;;1.70;;
363;SDS011;173;48.718;9.274;2022-07-17T16:40:57;1.70;;;1.60;;
363;SDS011;173;48.718;9.274;2022-07-17T16:43:29;1.70;;;1.60;;
363;SDS011;173;48.718;9.274;2022-07-17T16:46:02;1.75;;;1.65;;
363;SDS011;173;48.718;9.274;2022-07-17T16:48:34;1.60;;;1.50;;
363;SDS011;173;48.718;9.274;2022-07-17T16:51:16;1.70;;;1.60;;
363;SDS011;173;48.718;9.274;2022-07-17T16:53:48;1.90;;;1.80;;
363;SDS011;173;48.718;9.274;2022-07-17T16:56:20;1.55;;;1.45;;